My Meet Scores
Alexis Lupoli-Ginter, Johns Academy of Gymnastics - MyMeetScores.com
Top100 | Top Teams | Upcoming Meets | Completed Meets | Latest | Add Scores | Help| Support | Bookmark and Share

Alexis Lupoli-Ginter, Johns Academy of Gymnastics
Personal Bests
LevelVault BarsBeamFloorAA
39.3509.700 9.3509.50037.225
49.1009.425 8.6759.05035.900
XG9.2009.500 9.4009.20036.950
Meet Scores
Date Meet Team Session Level Division Vault Bars Beam Floor AA
2020-03-08 ABC Shoreline Local Qualifier - March 8th 2020 Johns Academy of Gymnastics 3 XG Jr/Sr 12+ 9.100 10T 9.250 22T 9.400 18T 9.200 21T 36.950 14
2020-02-21 Team Challenge 2020 Johns Academy of Gymnastics B8 XG Inter 8.925 4 8.900 6 8.900 8 9.000 7 35.725 7
2020-01-24 2020 Kinetic Kids Invitational Johns Academy of Gymnastics 2 XG Jr B 9.050 2T 9.300 3 8.700 5 8.750 10 35.800 5
2019-12-14 Reindeer Games 2019 Johns Academy of Gymnastics 5 XG Inter 9.100 4 9.500 1 9.250 1 8.900 4T 36.750 1
2019-04-27 Xcel Gold, Platinum, Diamond State Championsh Johns Academy of Gymnastics 5 XG Ch C 9.200 5T 9.225 6T 9.075 21T 8.825 34T 36.325 9
2019-02-08 Team Challenge 2019 Johns Academy of Gymnastics R8 XG Jr A 8.750 6 9.400 2 8.600 6 8.800 6 35.550 2
2019-01-25 Kinetic Kids Invitational 2019 Johns Academy of Gymnastics 6 XG Jr A 9.175 1T 9.350 2 8.350 3 8.800 5 35.675 1
2018-02-03 Level 4 & 5 States Johns Academy of Gymnastics 1 4 10 B 9.050 9T 9.000 7 7.750 64 9.025 11T 34.825 21
2018-01-27 Manhattan Classic Johns Academy of Gymnastics 4CP 4 Child B 0.000 20 9.350 7T 0.000 20 8.850 19T 18.200 20
2018-01-11 Brestyan's Invitational Johns Academy of Gymnastics A3 4 Age 2 8.750 19 9.425 6 8.675 33T 9.050 19 35.900 17
2017-11-30 Rhode Island Invitational Johns Academy of Gymnastics SF2 4 Junior 9.100 1T 9.300 1 8.050 7 8.750 4T 35.200 3
2017-11-10 2017 Phs Turkey Tumble Johns Academy of Gymnastics 1 4 Jr C 9.000 1 9.050 1 8.475 7 8.400 5 34.925 1
2017-03-25 2017 Connecticut Level 3 State Cup Johns Academy of Gymnastics 8 3 N/A 9.275 13 9.400 1T 9.050 6T 9.500 4 37.225 2
2017-03-03 Heartland Spring Classic Johns Academy of Gymnastics 10A 3 senior 9.200 18T 9.300 14T 9.350 8T 9.100 25T 36.950 14*
2017-02-10 Team Challenge 2017 Johns Academy of Gymnastics 10B 3 Junior 9.350 3 9.700 2 8.250 12 9.300 2 36.600 3
2017-01-27 24th Annual American Invitational Johns Academy of Gymnastics 5A 3 Junior 9.350 4T 8.900 7T 8.775 7 8.750 13T 35.775 7
2017-01-13 Brestyan's Invitational Johns Academy of Gymnastics 2 3 Age 3 9.100 3T 9.425 1 8.500 7T 9.200 2T 36.225 2
2016-12-02 Rhode Island Invitational Johns Academy of Gymnastics WS2 3 Junior 9.250 6 9.100 6 9.100 6 9.350 1T 36.800 4T
2016-04-02 2016 Connecticut Level 6 States & Level 3 State Cup Johns Academy of Gymnastics 1 3 N/A 9.100 23T 9.050 4 7.600 55 8.500 41T 34.250 35
2016-01-29 Team Challenge 2016 Johns Academy of Gymnastics 6B 3 Junior 9.050 4T 9.250 1 8.350 10 9.150 7 35.800 6
2015-12-04 Rhode Island Invitational Johns Academy of Gymnastics WU3 3 Child 8.400 42 7.900 31 7.150 35 7.500 34T 30.950 37
Get your scores on
a t-shirt, pin, or hoodie

www.lazysuits.com